sensor_id;sensor_type;location;lat;lon;timestamp;temperature;humidity
23452;DHT22;11898;51.130;6.780;2023-07-24T00:01:46;22.30;99.90
23452;DHT22;11898;51.130;6.780;2023-07-24T00:04:45;22.30;99.90
23452;DHT22;11898;51.130;6.780;2023-07-24T00:07:22;22.30;99.90
23452;DHT22;11898;51.130;6.780;2023-07-24T00:10:00;22.20;99.90
23452;DHT22;11898;51.130;6.780;2023-07-24T00:12:29;22.20;99.90
23452;DHT22;11898;51.130;6.780;2023-07-24T00:14:58;22.10;99.90
23452;DHT22;11898;51.130;6.780;2023-07-24T00:17:26;22.00;99.90
23452;DHT22;11898;51.130;6.780;2023-07-24T00:19:55;21.90;99.90
23452;DHT22;11898;51.130;6.780;2023-07-24T00:22:23;21.80;99.90
23452;DHT22;11898;51.130;6.780;2023-07-24T00:24:52;21.70;99.90
23452;DHT22;11898;51.130;6.780;2023-07-24T00:27:21;21.70;99.90
23452;DHT22;11898;51.130;6.780;2023-07-24T00:29:49;21.60;99.90
23452;DHT22;11898;51.130;6.780;2023-07-24T00:32:18;21.50;99.90
23452;DHT22;11898;51.130;6.780;2023-07-24T00:34:47;21.50;99.90
23452;DHT22;11898;51.130;6.780;2023-07-24T00:37:15;21.40;99.90
23452;DHT22;11898;51.130;6.780;2023-07-24T00:39:44;21.40;99.90
23452;DHT22;11898;51.130;6.780;2023-07-24T00:42:13;21.40;99.90
23452;DHT22;11898;51.130;6.780;2023-07-24T00:44:41;21.30;99.90
23452;DHT22;11898;51.130;6.780;2023-07-24T00:47:10;21.30;99.90
23452;DHT22;11898;51.130;6.780;2023-07-24T00:49:39;21.30;99.90
23452;DHT22;11898;51.130;6.780;2023-07-24T00:52:09;21.20;99.90
23452;DHT22;11898;51.130;6.780;2023-07-24T00:54:37;21.20;99.90
23452;DHT22;11898;51.130;6.780;2023-07-24T00:57:07;21.20;99.90
23452;DHT22;11898;51.130;6.780;2023-07-24T00:59:36;21.20;99.90
23452;DHT22;11898;51.130;6.780;2023-07-24T01:02:05;21.10;99.90
23452;DHT22;11898;51.130;6.780;2023-07-24T01:04:33;21.10;99.90
23452;DHT22;11898;51.130;6.780;2023-07-24T01:07:02;21.20;99.90
23452;DHT22;11898;51.130;6.780;2023-07-24T01:09:31;21.20;99.90
23452;DHT22;11898;51.130;6.780;2023-07-24T01:12:11;21.20;99.90
23452;DHT22;11898;51.130;6.780;2023-07-24T01:14:54;21.20;99.90
23452;DHT22;11898;51.130;6.780;2023-07-24T01:17:24;21.20;99.90
23452;DHT22;11898;51.130;6.780;2023-07-24T01:19:58;21.20;99.90
23452;DHT22;11898;51.130;6.780;2023-07-24T01:27:44;21.20;99.90
23452;DHT22;11898;51.130;6.780;2023-07-24T01:30:16;21.20;99.90
23452;DHT22;11898;51.130;6.780;2023-07-24T01:32:44;21.20;99.90
23452;DHT22;11898;51.130;6.780;2023-07-24T01:35:13;21.20;99.90
23452;DHT22;11898;51.130;6.780;2023-07-24T01:37:43;21.20;99.90
23452;DHT22;11898;51.130;6.780;2023-07-24T01:40:13;21.20;99.90
23452;DHT22;11898;51.130;6.780;2023-07-24T01:42:42;21.20;99.90
23452;DHT22;11898;51.130;6.780;2023-07-24T01:45:11;21.20;99.90
23452;DHT22;11898;51.130;6.780;2023-07-24T01:47:39;21.10;99.90
23452;DHT22;11898;51.130;6.780;2023-07-24T01:50:08;21.10;99.90
23452;DHT22;11898;51.130;6.780;2023-07-24T01:52:37;21.10;99.90
23452;DHT22;11898;51.130;6.780;2023-07-24T01:55:06;21.10;99.90
23452;DHT22;11898;51.130;6.780;2023-07-24T01:57:35;21.00;99.90
23452;DHT22;11898;51.130;6.780;2023-07-24T02:00:04;21.00;99.90
23452;DHT22;11898;51.130;6.780;2023-07-24T02:02:33;21.00;99.90
23452;DHT22;11898;51.130;6.780;2023-07-24T02:05:02;21.00;99.90
23452;DHT22;11898;51.130;6.780;2023-07-24T02:07:31;21.00;99.90
23452;DHT22;11898;51.130;6.780;2023-07-24T02:09:59;21.00;99.90
23452;DHT22;11898;51.130;6.780;2023-07-24T02:12:28;20.90;99.90
23452;DHT22;11898;51.130;6.780;2023-07-24T02:14:57;21.00;99.90
23452;DHT22;11898;51.130;6.780;2023-07-24T02:17:27;20.90;99.90
23452;DHT22;11898;51.130;6.780;2023-07-24T02:19:56;20.90;99.90
23452;DHT22;11898;51.130;6.780;2023-07-24T02:22:25;20.90;99.90
23452;DHT22;11898;51.130;6.780;2023-07-24T02:24:54;20.90;99.90
23452;DHT22;11898;51.130;6.780;2023-07-24T02:27:27;20.90;99.90
23452;DHT22;11898;51.130;6.780;2023-07-24T02:29:56;21.00;99.90
23452;DHT22;11898;51.130;6.780;2023-07-24T02:32:25;21.00;99.90
23452;DHT22;11898;51.130;6.780;2023-07-24T02:34:54;21.00;99.90
23452;DHT22;11898;51.130;6.780;2023-07-24T02:37:22;21.00;99.90
23452;DHT22;11898;51.130;6.780;2023-07-24T02:39:52;21.00;99.90
23452;DHT22;11898;51.130;6.780;2023-07-24T02:42:21;21.00;99.90
23452;DHT22;11898;51.130;6.780;2023-07-24T02:44:49;21.00;99.90
23452;DHT22;11898;51.130;6.780;2023-07-24T02:47:18;21.00;99.90
23452;DHT22;11898;51.130;6.780;2023-07-24T02:49:47;21.00;99.90
23452;DHT22;11898;51.130;6.780;2023-07-24T02:52:15;21.00;99.90
23452;DHT22;11898;51.130;6.780;2023-07-24T02:54:44;21.00;99.90
23452;DHT22;11898;51.130;6.780;2023-07-24T02:57:13;20.90;99.90
23452;DHT22;11898;51.130;6.780;2023-07-24T02:59:42;20.90;99.90
23452;DHT22;11898;51.130;6.780;2023-07-24T03:02:10;20.90;99.90
23452;DHT22;11898;51.130;6.780;2023-07-24T03:04:39;20.90;99.90
23452;DHT22;11898;51.130;6.780;2023-07-24T03:07:08;20.90;99.90
23452;DHT22;11898;51.130;6.780;2023-07-24T03:09:36;20.90;99.90
23452;DHT22;11898;51.130;6.780;2023-07-24T03:12:05;20.90;99.90
23452;DHT22;11898;51.130;6.780;2023-07-24T03:14:34;20.90;99.90
23452;DHT22;11898;51.130;6.780;2023-07-24T03:17:03;21.00;99.90
23452;DHT22;11898;51.130;6.780;2023-07-24T03:19:32;21.00;99.90
23452;DHT22;11898;51.130;6.780;2023-07-24T03:22:00;20.90;99.90
23452;DHT22;11898;51.130;6.780;2023-07-24T03:24:29;21.00;99.90
23452;DHT22;11898;51.130;6.780;2023-07-24T03:26:58;20.90;99.90
23452;DHT22;11898;51.130;6.780;2023-07-24T03:29:27;21.00;99.90
23452;DHT22;11898;51.130;6.780;2023-07-24T03:31:56;21.00;99.90
23452;DHT22;11898;51.130;6.780;2023-07-24T03:34:25;21.00;99.90
23452;DHT22;11898;51.130;6.780;2023-07-24T03:36:53;21.00;99.90
23452;DHT22;11898;51.130;6.780;2023-07-24T03:39:22;21.00;99.90
23452;DHT22;11898;51.130;6.780;2023-07-24T03:41:51;21.00;99.90
23452;DHT22;11898;51.130;6.780;2023-07-24T03:44:19;21.00;99.90
23452;DHT22;11898;51.130;6.780;2023-07-24T03:46:48;21.00;99.90
23452;DHT22;11898;51.130;6.780;2023-07-24T03:49:17;21.00;99.90
23452;DHT22;11898;51.130;6.780;2023-07-24T03:51:45;21.00;99.90
23452;DHT22;11898;51.130;6.780;2023-07-24T03:54:14;21.00;99.90
23452;DHT22;11898;51.130;6.780;2023-07-24T03:56:43;21.00;99.90
23452;DHT22;11898;51.130;6.780;2023-07-24T03:59:11;21.00;99.90
23452;DHT22;11898;51.130;6.780;2023-07-24T04:01:40;21.00;99.90
23452;DHT22;11898;51.130;6.780;2023-07-24T04:04:09;21.00;99.90
23452;DHT22;11898;51.130;6.780;2023-07-24T04:06:37;21.00;99.90
23452;DHT22;11898;51.130;6.780;2023-07-24T04:09:06;21.00;99.90
23452;DHT22;11898;51.130;6.780;2023-07-24T04:11:35;21.00;99.90
23452;DHT22;11898;51.130;6.780;2023-07-24T04:14:05;21.00;99.90
23452;DHT22;11898;51.130;6.780;2023-07-24T04:16:34;21.00;99.90
23452;DHT22;11898;51.130;6.780;2023-07-24T04:19:04;21.00;99.90
23452;DHT22;11898;51.130;6.780;2023-07-24T04:21:33;21.00;99.90
23452;DHT22;11898;51.130;6.780;2023-07-24T04:24:01;21.00;99.90
23452;DHT22;11898;51.130;6.780;2023-07-24T04:26:30;21.10;99.90
23452;DHT22;11898;51.130;6.780;2023-07-24T04:29:00;21.10;99.90
23452;DHT22;11898;51.130;6.780;2023-07-24T04:31:29;21.10;99.90
23452;DHT22;11898;51.130;6.780;2023-07-24T04:33:58;21.10;99.90
23452;DHT22;11898;51.130;6.780;2023-07-24T04:36:27;21.10;99.90
23452;DHT22;11898;51.130;6.780;2023-07-24T04:38:56;21.10;99.90
23452;DHT22;11898;51.130;6.780;2023-07-24T04:41:24;21.10;99.90
23452;DHT22;11898;51.130;6.780;2023-07-24T04:43:53;21.20;99.90
23452;DHT22;11898;51.130;6.780;2023-07-24T04:46:22;21.20;99.90
23452;DHT22;11898;51.130;6.780;2023-07-24T04:48:50;21.20;99.90
23452;DHT22;11898;51.130;6.780;2023-07-24T04:51:19;21.20;99.90
23452;DHT22;11898;51.130;6.780;2023-07-24T04:53:48;21.20;99.90
23452;DHT22;11898;51.130;6.780;2023-07-24T04:56:16;21.20;99.90
23452;DHT22;11898;51.130;6.780;2023-07-24T04:58:45;21.20;99.90
23452;DHT22;11898;51.130;6.780;2023-07-24T05:01:14;21.30;99.90
23452;DHT22;11898;51.130;6.780;2023-07-24T05:03:42;21.30;99.90
23452;DHT22;11898;51.130;6.780;2023-07-24T05:06:11;21.30;99.90
23452;DHT22;11898;51.130;6.780;2023-07-24T05:08:40;21.30;99.90
23452;DHT22;11898;51.130;6.780;2023-07-24T05:11:08;21.30;99.90
23452;DHT22;11898;51.130;6.780;2023-07-24T05:13:37;21.30;99.90
23452;DHT22;11898;51.130;6.780;2023-07-24T05:16:06;21.30;99.90
23452;DHT22;11898;51.130;6.780;2023-07-24T05:18:34;21.30;99.90
23452;DHT22;11898;51.130;6.780;2023-07-24T05:21:04;21.30;99.90
23452;DHT22;11898;51.130;6.780;2023-07-24T05:23:33;21.30;99.90
23452;DHT22;11898;51.130;6.780;2023-07-24T05:26:03;21.40;99.90
23452;DHT22;11898;51.130;6.780;2023-07-24T05:28:33;21.40;99.90
23452;DHT22;11898;51.130;6.780;2023-07-24T05:31:02;21.40;99.90
23452;DHT22;11898;51.130;6.780;2023-07-24T05:33:31;21.40;99.90
23452;DHT22;11898;51.130;6.780;2023-07-24T05:36:02;21.50;99.90
23452;DHT22;11898;51.130;6.780;2023-07-24T05:38:52;21.60;99.90
23452;DHT22;11898;51.130;6.780;2023-07-24T05:41:21;21.60;99.90
23452;DHT22;11898;51.130;6.780;2023-07-24T05:43:49;21.60;99.90
23452;DHT22;11898;51.130;6.780;2023-07-24T05:46:18;21.70;99.90
23452;DHT22;11898;51.130;6.780;2023-07-24T05:48:47;21.70;99.90
23452;DHT22;11898;51.130;6.780;2023-07-24T05:51:15;21.80;99.90
23452;DHT22;11898;51.130;6.780;2023-07-24T05:53:44;21.80;99.90
23452;DHT22;11898;51.130;6.780;2023-07-24T05:56:13;21.90;99.90
23452;DHT22;11898;51.130;6.780;2023-07-24T05:58:44;21.90;99.90
23452;DHT22;11898;51.130;6.780;2023-07-24T06:01:13;21.90;99.90
23452;DHT22;11898;51.130;6.780;2023-07-24T06:03:42;21.90;99.90
23452;DHT22;11898;51.130;6.780;2023-07-24T06:06:10;22.00;99.90
23452;DHT22;11898;51.130;6.780;2023-07-24T06:08:39;22.00;99.90
23452;DHT22;11898;51.130;6.780;2023-07-24T06:11:11;22.10;99.90
23452;DHT22;11898;51.130;6.780;2023-07-24T06:13:49;22.20;99.90
23452;DHT22;11898;51.130;6.780;2023-07-24T06:16:20;22.30;99.90
23452;DHT22;11898;51.130;6.780;2023-07-24T06:19:13;22.40;99.90
23452;DHT22;11898;51.130;6.780;2023-07-24T06:21:43;22.40;99.90
23452;DHT22;11898;51.130;6.780;2023-07-24T06:24:20;22.50;99.90
23452;DHT22;11898;51.130;6.780;2023-07-24T06:26:57;22.50;99.90
23452;DHT22;11898;51.130;6.780;2023-07-24T06:29:33;22.60;99.90
23452;DHT22;11898;51.130;6.780;2023-07-24T06:32:14;22.70;99.90
23452;DHT22;11898;51.130;6.780;2023-07-24T06:34:48;22.80;99.90
23452;DHT22;11898;51.130;6.780;2023-07-24T06:37:29;22.80;99.90
23452;DHT22;11898;51.130;6.780;2023-07-24T06:40:23;22.90;99.90
23452;DHT22;11898;51.130;6.780;2023-07-24T06:43:02;22.90;99.90
23452;DHT22;11898;51.130;6.780;2023-07-24T06:45:37;23.00;99.90
23452;DHT22;11898;51.130;6.780;2023-07-24T06:48:25;23.00;99.90
23452;DHT22;11898;51.130;6.780;2023-07-24T06:50:56;23.00;99.90
23452;DHT22;11898;51.130;6.780;2023-07-24T06:53:37;23.00;99.90
23452;DHT22;11898;51.130;6.780;2023-07-24T06:56:12;23.00;99.90
23452;DHT22;11898;51.130;6.780;2023-07-24T06:58:45;23.10;99.90
23452;DHT22;11898;51.130;6.780;2023-07-24T07:01:15;23.10;99.90
23452;DHT22;11898;51.130;6.780;2023-07-24T07:03:44;23.10;99.90
23452;DHT22;11898;51.130;6.780;2023-07-24T07:06:16;23.00;99.90
23452;DHT22;11898;51.130;6.780;2023-07-24T07:08:47;23.10;99.90
23452;DHT22;11898;51.130;6.780;2023-07-24T07:11:17;23.10;99.90
23452;DHT22;11898;51.130;6.780;2023-07-24T07:13:51;23.20;99.90
23452;DHT22;11898;51.130;6.780;2023-07-24T07:16:20;23.20;99.90
23452;DHT22;11898;51.130;6.780;2023-07-24T07:18:55;23.30;99.90
23452;DHT22;11898;51.130;6.780;2023-07-24T07:24:45;23.30;99.90
23452;DHT22;11898;51.130;6.780;2023-07-24T07:27:37;23.30;99.90
23452;DHT22;11898;51.130;6.780;2023-07-24T07:30:05;23.30;99.90
23452;DHT22;11898;51.130;6.780;2023-07-24T07:32:56;23.40;99.90
23452;DHT22;11898;51.130;6.780;2023-07-24T07:35:36;23.40;99.90
23452;DHT22;11898;51.130;6.780;2023-07-24T07:38:40;23.40;99.90
23452;DHT22;11898;51.130;6.780;2023-07-24T07:44:47;23.50;99.90
23452;DHT22;11898;51.130;6.780;2023-07-24T07:51:04;23.60;99.90
23452;DHT22;11898;51.130;6.780;2023-07-24T07:56:39;23.80;99.90
23452;DHT22;11898;51.130;6.780;2023-07-24T07:59:38;23.80;99.90
23452;DHT22;11898;51.130;6.780;2023-07-24T08:02:23;23.80;99.90
23452;DHT22;11898;51.130;6.780;2023-07-24T08:05:00;23.90;99.90
23452;DHT22;11898;51.130;6.780;2023-07-24T08:11:37;24.00;99.90
23452;DHT22;11898;51.130;6.780;2023-07-24T08:14:37;24.10;99.90
23452;DHT22;11898;51.130;6.780;2023-07-24T08:21:11;24.40;99.90
23452;DHT22;11898;51.130;6.780;2023-07-24T08:37:49;24.40;99.90
23452;DHT22;11898;51.130;6.780;2023-07-24T08:40:28;25.00;99.90
23452;DHT22;11898;51.130;6.780;2023-07-24T08:43:29;25.10;99.90
23452;DHT22;11898;51.130;6.780;2023-07-24T08:46:18;25.20;99.90
23452;DHT22;11898;51.130;6.780;2023-07-24T08:48:58;25.20;99.90
23452;DHT22;11898;51.130;6.780;2023-07-24T08:51:35;25.20;99.90
23452;DHT22;11898;51.130;6.780;2023-07-24T08:57:29;25.10;99.90
23452;DHT22;11898;51.130;6.780;2023-07-24T09:00:31;24.90;99.90
23452;DHT22;11898;51.130;6.780;2023-07-24T09:03:25;24.80;99.90
23452;DHT22;11898;51.130;6.780;2023-07-24T09:09:29;24.60;99.90
23452;DHT22;11898;51.130;6.780;2023-07-24T09:12:29;24.40;99.90
23452;DHT22;11898;51.130;6.780;2023-07-24T09:15:05;24.30;99.90
23452;DHT22;11898;51.130;6.780;2023-07-24T09:17:35;24.30;99.90
23452;DHT22;11898;51.130;6.780;2023-07-24T09:20:04;24.20;99.90
23452;DHT22;11898;51.130;6.780;2023-07-24T09:22:35;24.20;99.90
23452;DHT22;11898;51.130;6.780;2023-07-24T09:25:06;24.20;99.90
23452;DHT22;11898;51.130;6.780;2023-07-24T09:27:35;24.10;99.90
23452;DHT22;11898;51.130;6.780;2023-07-24T09:30:12;24.10;99.90
23452;DHT22;11898;51.130;6.780;2023-07-24T09:32:42;24.10;99.90
23452;DHT22;11898;51.130;6.780;2023-07-24T09:35:17;24.10;99.90
23452;DHT22;11898;51.130;6.780;2023-07-24T09:37:49;24.10;99.90
23452;DHT22;11898;51.130;6.780;2023-07-24T09:40:24;24.20;99.90
23452;DHT22;11898;51.130;6.780;2023-07-24T09:43:01;24.50;99.90
23452;DHT22;11898;51.130;6.780;2023-07-24T09:45:50;24.70;99.90
23452;DHT22;11898;51.130;6.780;2023-07-24T09:48:32;24.90;99.90
23452;DHT22;11898;51.130;6.780;2023-07-24T09:51:04;25.00;99.90
23452;DHT22;11898;51.130;6.780;2023-07-24T09:53:58;25.00;99.90
23452;DHT22;11898;51.130;6.780;2023-07-24T09:56:32;25.10;99.90
23452;DHT22;11898;51.130;6.780;2023-07-24T09:59:05;25.10;99.90
23452;DHT22;11898;51.130;6.780;2023-07-24T10:01:35;25.20;99.90
23452;DHT22;11898;51.130;6.780;2023-07-24T10:04:07;25.20;99.90
23452;DHT22;11898;51.130;6.780;2023-07-24T10:06:58;25.30;99.90
23452;DHT22;11898;51.130;6.780;2023-07-24T10:09:46;25.30;99.90
23452;DHT22;11898;51.130;6.780;2023-07-24T10:12:29;25.30;99.90
23452;DHT22;11898;51.130;6.780;2023-07-24T10:15:02;25.30;99.90
23452;DHT22;11898;51.130;6.780;2023-07-24T10:17:38;25.30;99.90
23452;DHT22;11898;51.130;6.780;2023-07-24T10:20:12;25.30;99.90
23452;DHT22;11898;51.130;6.780;2023-07-24T10:22:51;25.30;99.90
23452;DHT22;11898;51.130;6.780;2023-07-24T10:25:28;25.20;99.90
23452;DHT22;11898;51.130;6.780;2023-07-24T10:28:01;25.20;99.90
23452;DHT22;11898;51.130;6.780;2023-07-24T10:30:55;25.20;99.90
23452;DHT22;11898;51.130;6.780;2023-07-24T10:33:32;25.10;99.90
23452;DHT22;11898;51.130;6.780;2023-07-24T10:36:18;25.10;99.90
23452;DHT22;11898;51.130;6.780;2023-07-24T10:38:54;25.10;99.90
23452;DHT22;11898;51.130;6.780;2023-07-24T10:41:48;25.20;99.90
23452;DHT22;11898;51.130;6.780;2023-07-24T10:44:32;25.20;99.90
23452;DHT22;11898;51.130;6.780;2023-07-24T10:47:06;25.20;99.90
23452;DHT22;11898;51.130;6.780;2023-07-24T10:49:54;25.20;99.90
23452;DHT22;11898;51.130;6.780;2023-07-24T10:52:30;25.30;99.90
23452;DHT22;11898;51.130;6.780;2023-07-24T10:55:02;25.40;99.90
23452;DHT22;11898;51.130;6.780;2023-07-24T10:57:31;25.50;99.90
23452;DHT22;11898;51.130;6.780;2023-07-24T11:00:00;25.60;99.90
23452;DHT22;11898;51.130;6.780;2023-07-24T11:02:31;25.60;99.90
23452;DHT22;11898;51.130;6.780;2023-07-24T11:05:00;25.70;99.90
23452;DHT22;11898;51.130;6.780;2023-07-24T11:07:42;25.80;99.90
23452;DHT22;11898;51.130;6.780;2023-07-24T11:10:19;25.80;99.90
23452;DHT22;11898;51.130;6.780;2023-07-24T11:12:51;25.70;99.90
23452;DHT22;11898;51.130;6.780;2023-07-24T11:15:25;25.70;99.90
23452;DHT22;11898;51.130;6.780;2023-07-24T11:17:54;25.60;99.90
23452;DHT22;11898;51.130;6.780;2023-07-24T11:20:23;25.40;99.90
23452;DHT22;11898;51.130;6.780;2023-07-24T11:22:52;25.20;99.90
23452;DHT22;11898;51.130;6.780;2023-07-24T11:25:24;25.10;99.90
23452;DHT22;11898;51.130;6.780;2023-07-24T11:27:58;24.80;99.90
23452;DHT22;11898;51.130;6.780;2023-07-24T11:30:29;24.60;99.90
23452;DHT22;11898;51.130;6.780;2023-07-24T11:33:16;24.40;99.90
23452;DHT22;11898;51.130;6.780;2023-07-24T11:36:10;24.20;99.90
23452;DHT22;11898;51.130;6.780;2023-07-24T11:38:48;24.00;99.90
23452;DHT22;11898;51.130;6.780;2023-07-24T11:41:23;23.90;99.90
23452;DHT22;11898;51.130;6.780;2023-07-24T11:44:00;23.80;99.90
23452;DHT22;11898;51.130;6.780;2023-07-24T11:46:34;23.50;99.90
23452;DHT22;11898;51.130;6.780;2023-07-24T11:49:08;23.20;99.90
23452;DHT22;11898;51.130;6.780;2023-07-24T11:51:37;22.90;99.90
23452;DHT22;11898;51.130;6.780;2023-07-24T11:54:11;22.60;99.90
23452;DHT22;11898;51.130;6.780;2023-07-24T11:56:43;22.40;99.90
23452;DHT22;11898;51.130;6.780;2023-07-24T11:59:14;22.10;99.90
23452;DHT22;11898;51.130;6.780;2023-07-24T12:01:48;21.90;99.90
23452;DHT22;11898;51.130;6.780;2023-07-24T12:04:17;21.70;99.90
23452;DHT22;11898;51.130;6.780;2023-07-24T12:06:46;21.50;99.90
23452;DHT22;11898;51.130;6.780;2023-07-24T12:09:15;21.40;99.90
23452;DHT22;11898;51.130;6.780;2023-07-24T12:11:44;21.40;99.90
23452;DHT22;11898;51.130;6.780;2023-07-24T12:14:14;21.50;99.90
23452;DHT22;11898;51.130;6.780;2023-07-24T12:16:43;21.60;99.90
23452;DHT22;11898;51.130;6.780;2023-07-24T12:19:12;21.80;99.90
23452;DHT22;11898;51.130;6.780;2023-07-24T12:21:40;22.00;99.90
23452;DHT22;11898;51.130;6.780;2023-07-24T12:24:09;22.30;99.90
23452;DHT22;11898;51.130;6.780;2023-07-24T12:26:38;22.50;99.90
23452;DHT22;11898;51.130;6.780;2023-07-24T12:29:07;22.70;99.90
23452;DHT22;11898;51.130;6.780;2023-07-24T12:31:35;22.90;99.90
23452;DHT22;11898;51.130;6.780;2023-07-24T12:34:04;23.30;99.90
23452;DHT22;11898;51.130;6.780;2023-07-24T12:36:33;23.60;99.90
23452;DHT22;11898;51.130;6.780;2023-07-24T12:39:02;24.00;99.90
23452;DHT22;11898;51.130;6.780;2023-07-24T12:41:31;24.30;99.90
23452;DHT22;11898;51.130;6.780;2023-07-24T12:44:00;24.60;99.90
23452;DHT22;11898;51.130;6.780;2023-07-24T12:46:30;24.80;99.90
23452;DHT22;11898;51.130;6.780;2023-07-24T12:48:58;25.10;99.90
23452;DHT22;11898;51.130;6.780;2023-07-24T12:51:27;25.40;99.90
23452;DHT22;11898;51.130;6.780;2023-07-24T12:53:56;25.60;99.90
23452;DHT22;11898;51.130;6.780;2023-07-24T12:56:26;25.80;99.90
23452;DHT22;11898;51.130;6.780;2023-07-24T12:58:55;26.00;99.90
23452;DHT22;11898;51.130;6.780;2023-07-24T13:01:25;26.20;99.90
23452;DHT22;11898;51.130;6.780;2023-07-24T13:03:56;26.40;99.90
23452;DHT22;11898;51.130;6.780;2023-07-24T13:06:27;26.60;99.90
23452;DHT22;11898;51.130;6.780;2023-07-24T13:08:56;26.80;99.90
23452;DHT22;11898;51.130;6.780;2023-07-24T13:11:25;26.90;99.90
23452;DHT22;11898;51.130;6.780;2023-07-24T13:13:56;27.00;99.90
23452;DHT22;11898;51.130;6.780;2023-07-24T13:16:25;27.10;99.90
23452;DHT22;11898;51.130;6.780;2023-07-24T13:18:55;27.10;99.90
23452;DHT22;11898;51.130;6.780;2023-07-24T13:21:24;27.20;99.90
23452;DHT22;11898;51.130;6.780;2023-07-24T13:23:53;27.20;99.90
23452;DHT22;11898;51.130;6.780;2023-07-24T13:26:23;27.20;99.90
23452;DHT22;11898;51.130;6.780;2023-07-24T13:28:52;27.20;99.90
23452;DHT22;11898;51.130;6.780;2023-07-24T13:31:22;27.10;99.90
23452;DHT22;11898;51.130;6.780;2023-07-24T13:33:51;27.10;99.90
23452;DHT22;11898;51.130;6.780;2023-07-24T13:36:20;27.00;99.90
23452;DHT22;11898;51.130;6.780;2023-07-24T13:38:49;26.90;99.90
23452;DHT22;11898;51.130;6.780;2023-07-24T13:41:18;26.80;99.90
23452;DHT22;11898;51.130;6.780;2023-07-24T13:43:46;26.70;99.90
23452;DHT22;11898;51.130;6.780;2023-07-24T13:46:17;26.60;99.90
23452;DHT22;11898;51.130;6.780;2023-07-24T13:48:46;26.60;99.90
23452;DHT22;11898;51.130;6.780;2023-07-24T13:51:15;26.50;99.90
23452;DHT22;11898;51.130;6.780;2023-07-24T13:53:44;26.50;99.90
23452;DHT22;11898;51.130;6.780;2023-07-24T13:56:14;26.50;99.90
23452;DHT22;11898;51.130;6.780;2023-07-24T13:58:43;26.40;99.90
23452;DHT22;11898;51.130;6.780;2023-07-24T14:03:42;26.40;99.90
23452;DHT22;11898;51.130;6.780;2023-07-24T14:06:11;26.30;99.90
23452;DHT22;11898;51.130;6.780;2023-07-24T14:08:40;26.30;99.90
23452;DHT22;11898;51.130;6.780;2023-07-24T14:11:09;26.20;99.90
23452;DHT22;11898;51.130;6.780;2023-07-24T14:13:37;26.20;99.90
23452;DHT22;11898;51.130;6.780;2023-07-24T14:16:06;26.20;99.90
23452;DHT22;11898;51.130;6.780;2023-07-24T14:18:35;26.30;99.90
23452;DHT22;11898;51.130;6.780;2023-07-24T14:21:03;26.30;99.90
23452;DHT22;11898;51.130;6.780;2023-07-24T14:23:34;26.30;99.90
23452;DHT22;11898;51.130;6.780;2023-07-24T14:26:03;26.30;99.90
23452;DHT22;11898;51.130;6.780;2023-07-24T14:28:31;26.30;99.90
23452;DHT22;11898;51.130;6.780;2023-07-24T14:31:00;26.20;99.90
23452;DHT22;11898;51.130;6.780;2023-07-24T14:33:29;26.30;99.90
23452;DHT22;11898;51.130;6.780;2023-07-24T14:35:58;26.30;99.90
23452;DHT22;11898;51.130;6.780;2023-07-24T14:38:26;26.30;99.90
23452;DHT22;11898;51.130;6.780;2023-07-24T14:40:55;26.20;99.90
23452;DHT22;11898;51.130;6.780;2023-07-24T14:43:24;26.10;99.90
23452;DHT22;11898;51.130;6.780;2023-07-24T14:45:52;26.10;99.90
23452;DHT22;11898;51.130;6.780;2023-07-24T14:48:21;26.00;99.90
23452;DHT22;11898;51.130;6.780;2023-07-24T14:50:50;25.90;99.90
23452;DHT22;11898;51.130;6.780;2023-07-24T14:53:19;25.80;99.90
23452;DHT22;11898;51.130;6.780;2023-07-24T14:55:47;25.50;99.90
23452;DHT22;11898;51.130;6.780;2023-07-24T14:58:16;25.20;99.90
23452;DHT22;11898;51.130;6.780;2023-07-24T15:00:47;24.90;99.90
23452;DHT22;11898;51.130;6.780;2023-07-24T15:03:16;24.60;99.90
23452;DHT22;11898;51.130;6.780;2023-07-24T15:05:44;24.50;99.90
23452;DHT22;11898;51.130;6.780;2023-07-24T15:08:13;24.40;99.90
23452;DHT22;11898;51.130;6.780;2023-07-24T15:10:42;24.50;99.90
23452;DHT22;11898;51.130;6.780;2023-07-24T15:13:11;24.60;99.90
23452;DHT22;11898;51.130;6.780;2023-07-24T15:15:41;24.70;99.90
23452;DHT22;11898;51.130;6.780;2023-07-24T15:18:10;24.90;99.90
23452;DHT22;11898;51.130;6.780;2023-07-24T15:20:39;25.10;99.90
23452;DHT22;11898;51.130;6.780;2023-07-24T15:23:08;25.30;99.90
23452;DHT22;11898;51.130;6.780;2023-07-24T15:25:37;25.40;99.90
23452;DHT22;11898;51.130;6.780;2023-07-24T15:28:06;25.50;99.90
23452;DHT22;11898;51.130;6.780;2023-07-24T15:30:35;25.60;99.90
23452;DHT22;11898;51.130;6.780;2023-07-24T15:33:04;25.60;99.90
23452;DHT22;11898;51.130;6.780;2023-07-24T15:35:33;25.60;99.90
23452;DHT22;11898;51.130;6.780;2023-07-24T15:38:02;25.60;99.90
23452;DHT22;11898;51.130;6.780;2023-07-24T15:40:32;25.50;99.90
23452;DHT22;11898;51.130;6.780;2023-07-24T15:43:01;25.50;99.90
23452;DHT22;11898;51.130;6.780;2023-07-24T15:45:29;25.50;99.90
23452;DHT22;11898;51.130;6.780;2023-07-24T15:47:58;25.50;99.90
23452;DHT22;11898;51.130;6.780;2023-07-24T15:50:27;25.60;99.90
23452;DHT22;11898;51.130;6.780;2023-07-24T15:52:56;25.70;99.90
23452;DHT22;11898;51.130;6.780;2023-07-24T15:55:25;25.80;99.90
23452;DHT22;11898;51.130;6.780;2023-07-24T15:57:54;26.00;99.90
23452;DHT22;11898;51.130;6.780;2023-07-24T16:00:24;26.10;99.90
23452;DHT22;11898;51.130;6.780;2023-07-24T16:02:53;26.20;99.90
23452;DHT22;11898;51.130;6.780;2023-07-24T16:05:22;26.30;99.90
23452;DHT22;11898;51.130;6.780;2023-07-24T16:07:51;26.40;99.90
23452;DHT22;11898;51.130;6.780;2023-07-24T16:10:21;26.50;99.90
23452;DHT22;11898;51.130;6.780;2023-07-24T16:12:50;26.60;99.90
23452;DHT22;11898;51.130;6.780;2023-07-24T16:15:19;26.60;99.90
23452;DHT22;11898;51.130;6.780;2023-07-24T16:17:49;26.70;99.90
23452;DHT22;11898;51.130;6.780;2023-07-24T16:20:19;26.80;99.90
23452;DHT22;11898;51.130;6.780;2023-07-24T16:22:48;26.80;99.90
23452;DHT22;11898;51.130;6.780;2023-07-24T16:25:17;26.90;99.90
23452;DHT22;11898;51.130;6.780;2023-07-24T16:27:46;26.90;99.90
23452;DHT22;11898;51.130;6.780;2023-07-24T16:30:14;26.80;99.90
23452;DHT22;11898;51.130;6.780;2023-07-24T16:32:44;26.60;99.90
23452;DHT22;11898;51.130;6.780;2023-07-24T16:35:15;26.50;99.90
23452;DHT22;11898;51.130;6.780;2023-07-24T16:37:43;26.30;99.90
23452;DHT22;11898;51.130;6.780;2023-07-24T16:40:12;26.10;99.90
23452;DHT22;11898;51.130;6.780;2023-07-24T16:42:41;25.70;99.90
23452;DHT22;11898;51.130;6.780;2023-07-24T16:45:11;25.20;99.90
23452;DHT22;11898;51.130;6.780;2023-07-24T16:47:41;24.60;99.90
23452;DHT22;11898;51.130;6.780;2023-07-24T16:50:11;24.00;99.90